createdAt,value
2023-04-15T00:01:01.263Z,13.42
2023-04-15T00:03:28.728Z,13.41
2023-04-15T00:05:55.704Z,13.38
2023-04-15T00:08:22.282Z,13.39
2023-04-15T00:10:49.252Z,13.37
2023-04-15T00:13:16.528Z,13.32
2023-04-15T00:15:43.363Z,13.39
2023-04-15T00:18:10.162Z,13.21
2023-04-15T00:20:37.145Z,13.16
2023-04-15T00:23:04.149Z,13.23
2023-04-15T00:25:31.614Z,13.26
2023-04-15T00:27:58.190Z,13.26
2023-04-15T00:30:25.718Z,13.28
2023-04-15T00:32:52.689Z,13.19
2023-04-15T00:35:21.766Z,13.31
2023-04-15T00:37:49.972Z,13.14
2023-04-15T00:40:19.584Z,13.22
2023-04-15T00:42:46.202Z,13.15
2023-04-15T00:45:13.900Z,13.14
2023-04-15T00:47:42.995Z,13.19
2023-04-15T00:50:10.881Z,13.01
2023-04-15T00:52:38.932Z,13.02
2023-04-15T00:55:06.760Z,13.13
2023-04-15T00:57:33.737Z,13.08
2023-04-15T01:00:01.064Z,13.07
2023-04-15T01:02:28.193Z,12.72
2023-04-15T01:04:54.963Z,12.84
2023-04-15T01:07:21.493Z,12.63
2023-04-15T01:09:48.061Z,12.91
2023-04-15T01:12:16.511Z,12.77
2023-04-15T01:14:43.452Z,12.87
2023-04-15T01:17:09.979Z,12.92
2023-04-15T01:19:37.240Z,12.85
2023-04-15T01:22:05.248Z,13.05
2023-04-15T01:24:32.183Z,12.90
2023-04-15T01:26:59.270Z,13.07
2023-04-15T01:29:26.697Z,13.17
2023-04-15T01:31:54.934Z,12.88
2023-04-15T01:34:22.262Z,13.14
2023-04-15T01:36:48.904Z,13.02
2023-04-15T01:39:15.844Z,13.01
2023-04-15T01:41:42.409Z,13.19
2023-04-15T01:44:09.152Z,13.23
2023-04-15T01:46:36.338Z,13.02
2023-04-15T01:49:03.020Z,13.11
2023-04-15T01:51:31.979Z,12.92
2023-04-15T01:53:58.793Z,12.95
2023-04-15T01:56:25.431Z,13.11
2023-04-15T01:58:52.678Z,13.19
2023-04-15T02:01:19.908Z,13.22
2023-04-15T02:03:47.726Z,13.00
2023-04-15T02:06:15.335Z,13.00
2023-04-15T02:08:41.877Z,13.05
2023-04-15T02:11:08.473Z,13.01
2023-04-15T02:13:35.106Z,12.76
2023-04-15T02:16:01.866Z,12.94
2023-04-15T02:18:28.535Z,13.03
2023-04-15T02:20:57.174Z,12.96
2023-04-15T02:23:23.907Z,13.04
2023-04-15T02:25:53.372Z,13.06
2023-04-15T02:28:21.658Z,12.87
2023-04-15T02:30:53.670Z,12.84
2023-04-15T02:33:21.645Z,12.92
2023-04-15T02:35:48.367Z,12.99
2023-04-15T02:38:16.803Z,13.27
2023-04-15T02:40:43.750Z,13.20
2023-04-15T02:43:10.619Z,13.29
2023-04-15T02:45:37.298Z,13.24
2023-04-15T02:48:06.656Z,13.44
2023-04-15T02:50:33.545Z,13.29
2023-04-15T02:53:01.550Z,13.18
2023-04-15T02:55:29.247Z,13.21
2023-04-15T02:57:56.120Z,13.34
2023-04-15T03:00:25.182Z,13.40
2023-04-15T03:02:56.381Z,13.35
2023-04-15T03:05:26.186Z,13.38
2023-04-15T03:07:53.235Z,13.26
2023-04-15T03:10:21.308Z,13.35
2023-04-15T03:12:48.427Z,13.32
2023-04-15T03:15:18.207Z,13.38
2023-04-15T03:17:49.517Z,13.34
2023-04-15T03:20:17.001Z,13.36
2023-04-15T03:22:43.757Z,13.11
2023-04-15T03:25:10.674Z,13.23
2023-04-15T03:27:38.945Z,13.26
2023-04-15T03:30:06.643Z,13.22
2023-04-15T03:32:35.902Z,13.21
2023-04-15T03:35:02.493Z,13.21
2023-04-15T03:37:29.241Z,13.20
2023-04-15T03:39:55.967Z,13.30
2023-04-15T03:42:22.771Z,13.31
2023-04-15T03:44:49.481Z,13.42
2023-04-15T03:47:16.374Z,13.42
2023-04-15T03:49:42.919Z,13.34
2023-04-15T03:52:09.568Z,13.21
2023-04-15T03:54:36.089Z,13.21
2023-04-15T03:57:03.355Z,13.16
2023-04-15T03:59:29.952Z,13.07
2023-04-15T04:01:56.619Z,13.05
2023-04-15T04:04:23.459Z,13.05
2023-04-15T04:06:50.165Z,13.07
2023-04-15T04:09:16.722Z,13.13
2023-04-15T04:11:43.296Z,13.12
2023-04-15T04:14:09.804Z,13.22
2023-04-15T04:16:36.745Z,13.25
2023-04-15T04:19:03.597Z,13.26
2023-04-15T04:21:30.760Z,13.16
2023-04-15T04:23:57.326Z,13.04
2023-04-15T04:26:23.918Z,13.07
2023-04-15T04:28:50.726Z,12.86
2023-04-15T04:31:17.557Z,13.13
2023-04-15T04:33:44.084Z,13.01
2023-04-15T04:36:10.665Z,13.09
2023-04-15T04:38:37.170Z,13.16
2023-04-15T04:41:03.703Z,13.15
2023-04-15T04:43:30.585Z,13.09
2023-04-15T04:45:57.124Z,13.06
2023-04-15T04:48:23.777Z,13.14
2023-04-15T04:50:50.442Z,13.20
2023-04-15T04:53:18.018Z,13.17
2023-04-15T04:55:44.541Z,13.26
2023-04-15T04:58:11.586Z,13.14
2023-04-15T05:00:38.431Z,13.13
2023-04-15T05:03:05.293Z,13.28
2023-04-15T05:05:32.041Z,13.17
2023-04-15T05:07:58.606Z,13.25
2023-04-15T05:10:25.213Z,13.11
2023-04-15T05:12:52.581Z,13.16
2023-04-15T05:15:19.254Z,13.36
2023-04-15T05:17:45.820Z,13.20
2023-04-15T05:20:12.830Z,13.32
2023-04-15T05:22:39.334Z,13.22
2023-04-15T05:25:06.148Z,13.47
2023-04-15T05:27:32.798Z,13.43
2023-04-15T05:29:59.366Z,13.44
2023-04-15T05:32:26.265Z,13.55
2023-04-15T05:34:52.842Z,13.55
2023-04-15T05:37:22.333Z,13.55
2023-04-15T05:39:49.148Z,13.46
2023-04-15T05:42:15.832Z,13.53
2023-04-15T05:44:42.739Z,13.32
2023-04-15T05:47:10.263Z,13.54
2023-04-15T05:49:37.083Z,13.74
2023-04-15T05:52:03.815Z,13.70
2023-04-15T05:54:30.414Z,13.68
2023-04-15T05:56:57.638Z,13.75
2023-04-15T05:59:24.162Z,13.70
2023-04-15T06:01:52.081Z,13.70
2023-04-15T06:04:18.775Z,13.53
2023-04-15T06:06:45.454Z,13.33
2023-04-15T06:09:12.029Z,13.37
2023-04-15T06:11:38.582Z,13.49
2023-04-15T06:14:05.174Z,13.60
2023-04-15T06:16:32.240Z,13.77
2023-04-15T06:18:58.977Z,13.89
2023-04-15T06:21:25.658Z,13.89
2023-04-15T06:23:52.218Z,13.92
2023-04-15T06:26:18.782Z,14.04
2023-04-15T06:28:45.324Z,13.51
2023-04-15T06:31:11.971Z,13.71
2023-04-15T06:33:39.542Z,13.80
2023-04-15T06:36:06.279Z,14.03
2023-04-15T06:38:32.824Z,13.98
2023-04-15T06:40:59.446Z,13.81
2023-04-15T06:43:26.011Z,13.85
2023-04-15T06:45:52.565Z,13.61
2023-04-15T06:48:19.182Z,13.94
2023-04-15T06:50:45.778Z,14.04
2023-04-15T06:53:12.374Z,14.35
2023-04-15T06:55:39.064Z,14.28
2023-04-15T06:58:05.762Z,13.90
2023-04-15T07:00:33.669Z,13.86
2023-04-15T07:03:03.715Z,13.90
2023-04-15T07:05:32.329Z,14.06
2023-04-15T07:07:58.900Z,14.09
2023-04-15T07:10:26.045Z,14.01
2023-04-15T07:12:52.567Z,13.86
2023-04-15T07:15:19.521Z,14.33
2023-04-15T07:17:46.306Z,14.36
2023-04-15T07:20:13.170Z,14.14
2023-04-15T07:22:40.219Z,13.86
2023-04-15T07:25:07.837Z,14.60
2023-04-15T07:27:34.428Z,14.85
2023-04-15T07:30:01.972Z,14.43
2023-04-15T07:32:28.579Z,14.62
2023-04-15T07:34:55.206Z,14.46
2023-04-15T07:37:21.797Z,14.43
2023-04-15T07:39:48.991Z,14.25
2023-04-15T07:42:15.947Z,14.78
2023-04-15T07:44:42.526Z,15.10
2023-04-15T07:47:09.109Z,14.88
2023-04-15T07:49:35.670Z,14.91
2023-04-15T07:52:02.285Z,14.83
2023-04-15T07:54:28.819Z,15.09
2023-04-15T07:56:56.432Z,14.65
2023-04-15T07:59:22.966Z,15.39
2023-04-15T08:01:50.131Z,15.14
2023-04-15T08:04:17.025Z,15.07
2023-04-15T08:06:44.036Z,15.07
2023-04-15T08:09:10.991Z,15.42
2023-04-15T08:11:37.604Z,15.28
2023-04-15T08:14:04.165Z,15.55
2023-04-15T08:16:30.968Z,16.07
2023-04-15T08:18:57.897Z,16.26
2023-04-15T08:21:24.999Z,15.87
2023-04-15T08:23:53.061Z,16.06
2023-04-15T08:26:21.168Z,16.13
2023-04-15T08:28:48.775Z,16.75
2023-04-15T08:31:16.571Z,16.37
2023-04-15T08:33:43.295Z,16.70
2023-04-15T08:36:09.974Z,16.99
2023-04-15T08:38:37.339Z,16.63
2023-04-15T08:41:10.817Z,16.20
2023-04-15T08:44:01.166Z,16.35
2023-04-15T08:46:28.216Z,15.90
2023-04-15T08:48:57.595Z,16.32
2023-04-15T08:51:25.101Z,16.27
2023-04-15T08:53:52.591Z,16.12
2023-04-15T08:56:20.211Z,16.42
2023-04-15T08:58:47.652Z,16.66
2023-04-15T09:01:14.305Z,16.52
2023-04-15T09:03:42.362Z,16.82
2023-04-15T09:06:09.334Z,16.26
2023-04-15T09:08:35.916Z,16.57
2023-04-15T09:11:03.308Z,16.70
2023-04-15T09:13:30.419Z,16.67
2023-04-15T09:15:58.403Z,16.34
2023-04-15T09:18:32.951Z,16.16
2023-04-15T09:21:13.965Z,16.48
2023-04-15T09:23:55.594Z,16.59
2023-04-15T09:26:34.756Z,16.71
2023-04-15T09:29:09.284Z,17.06
2023-04-15T09:31:37.031Z,16.69
2023-04-15T09:34:03.784Z,16.42
2023-04-15T09:36:51.774Z,17.35
2023-04-15T09:39:18.349Z,16.69
2023-04-15T09:41:45.281Z,16.90
2023-04-15T09:44:25.537Z,17.31
2023-04-15T09:46:52.146Z,17.54
2023-04-15T09:49:19.725Z,17.88
2023-04-15T09:51:57.593Z,17.53
2023-04-15T09:54:40.203Z,16.93
2023-04-15T09:57:08.618Z,17.50
2023-04-15T09:59:35.586Z,17.06
2023-04-15T10:02:05.636Z,17.07
2023-04-15T10:04:35.498Z,16.79
2023-04-15T10:07:05.039Z,17.15
2023-04-15T10:09:33.583Z,17.34
2023-04-15T10:12:01.085Z,17.52
2023-04-15T10:14:32.814Z,17.35
2023-04-15T10:17:01.658Z,17.39
2023-04-15T10:19:33.145Z,17.50
2023-04-15T10:22:00.208Z,17.35
2023-04-15T10:24:28.704Z,17.44
2023-04-15T10:26:57.235Z,17.69
2023-04-15T10:29:27.300Z,17.94
2023-04-15T10:31:58.942Z,17.64
2023-04-15T10:34:26.150Z,17.82
2023-04-15T10:36:57.326Z,17.83
2023-04-15T10:39:33.167Z,18.35
2023-04-15T10:42:13.991Z,18.20
2023-04-15T10:44:43.680Z,18.21
2023-04-15T10:47:15.779Z,17.90
2023-04-15T10:49:49.855Z,17.97
2023-04-15T10:52:17.942Z,18.07
2023-04-15T10:54:44.921Z,17.74
2023-04-15T10:57:17.430Z,17.80
2023-04-15T11:00:16.454Z,17.96
2023-04-15T11:02:46.453Z,17.93
2023-04-15T11:05:14.291Z,17.66
2023-04-15T11:07:53.146Z,17.23
2023-04-15T11:10:25.938Z,17.48
2023-04-15T11:12:54.697Z,17.62
2023-04-15T11:15:30.436Z,17.47
2023-04-15T11:17:58.652Z,18.01
2023-04-15T11:20:25.921Z,18.39
2023-04-15T11:23:08.213Z,18.68
2023-04-15T11:25:41.692Z,18.51
2023-04-15T11:28:08.421Z,18.36
2023-04-15T11:30:37.411Z,17.68
2023-04-15T11:33:09.201Z,17.69
2023-04-15T11:35:36.261Z,17.75
2023-04-15T11:38:08.572Z,17.49
2023-04-15T11:40:36.114Z,17.58
2023-04-15T11:43:16.871Z,16.87
2023-04-15T11:45:55.942Z,17.21
2023-04-15T11:48:24.887Z,17.30
2023-04-15T11:50:59.514Z,17.65
2023-04-15T11:53:37.765Z,17.52
2023-04-15T11:56:05.293Z,17.42
2023-04-15T11:58:34.227Z,17.35
2023-04-15T12:01:01.518Z,16.98
2023-04-15T12:03:29.358Z,16.72
2023-04-15T12:06:12.259Z,16.50
2023-04-15T12:09:06.328Z,16.20
2023-04-15T12:11:40.721Z,16.33
2023-04-15T12:14:28.447Z,15.69
2023-04-15T12:16:58.291Z,15.86
2023-04-15T12:19:36.644Z,15.81
2023-04-15T12:22:09.999Z,15.66
2023-04-15T12:24:38.674Z,15.63
2023-04-15T12:27:10.923Z,15.41
2023-04-15T12:29:39.637Z,15.53
2023-04-15T12:32:14.796Z,14.80
2023-04-15T12:34:44.884Z,15.76
2023-04-15T12:37:14.154Z,16.05
2023-04-15T12:39:43.524Z,16.38
2023-04-15T12:42:10.927Z,16.43
2023-04-15T12:44:38.145Z,16.34
2023-04-15T12:47:05.940Z,16.45
2023-04-15T12:49:33.652Z,16.57
2023-04-15T12:52:02.195Z,16.50
2023-04-15T12:54:30.226Z,16.54
2023-04-15T12:56:57.510Z,17.39
2023-04-15T12:59:24.384Z,17.17
2023-04-15T13:01:52.120Z,17.24
2023-04-15T13:04:20.569Z,17.68
2023-04-15T13:06:47.255Z,17.59
2023-04-15T13:09:13.919Z,17.22
2023-04-15T13:11:40.788Z,17.12
2023-04-15T13:14:09.157Z,17.15
2023-04-15T13:16:36.223Z,17.36
2023-04-15T13:19:03.863Z,17.53
2023-04-15T13:21:34.854Z,17.56
2023-04-15T13:24:01.733Z,17.78
2023-04-15T13:26:28.242Z,17.94
2023-04-15T13:28:54.854Z,17.52
2023-04-15T13:31:21.487Z,17.03
2023-04-15T13:33:48.042Z,17.27
2023-04-15T13:36:14.570Z,17.07
2023-04-15T13:38:41.380Z,17.16
2023-04-15T13:41:07.905Z,16.92
2023-04-15T13:43:34.531Z,15.96
2023-04-15T13:46:01.315Z,16.24
2023-04-15T13:48:28.695Z,16.38
2023-04-15T13:50:55.337Z,16.33
2023-04-15T13:53:22.021Z,16.05
2023-04-15T13:56:04.760Z,15.56
2023-04-15T13:58:31.355Z,15.50
2023-04-15T14:00:58.069Z,15.58
2023-04-15T14:03:24.847Z,15.94
2023-04-15T14:05:55.849Z,15.87
2023-04-15T14:08:23.024Z,15.84
2023-04-15T14:10:49.595Z,16.29
2023-04-15T14:13:16.296Z,16.58
2023-04-15T14:15:42.878Z,16.60
2023-04-15T14:18:09.827Z,16.22
2023-04-15T14:20:36.355Z,16.67
2023-04-15T14:23:02.898Z,16.88
2023-04-15T14:25:33.711Z,16.89
2023-04-15T14:28:01.548Z,17.16
2023-04-15T14:30:28.256Z,17.14
2023-04-15T14:32:54.884Z,17.50
2023-04-15T14:35:21.723Z,17.22
2023-04-15T14:37:48.223Z,17.43
2023-04-15T14:40:14.918Z,16.99
2023-04-15T14:42:41.446Z,17.01
2023-04-15T14:45:08.879Z,17.22
2023-04-15T14:47:35.652Z,17.04
2023-04-15T14:50:02.603Z,16.46
2023-04-15T14:52:32.914Z,16.59
2023-04-15T14:54:59.439Z,16.64
2023-04-15T14:57:25.973Z,17.18
2023-04-15T14:59:56.493Z,16.85
2023-04-15T15:02:37.509Z,16.46
2023-04-15T15:05:06.017Z,16.08
2023-04-15T15:07:32.811Z,16.07
2023-04-15T15:09:59.360Z,16.61
2023-04-15T15:12:26.014Z,16.13
2023-04-15T15:14:52.530Z,15.79
2023-04-15T15:17:19.116Z,16.20
2023-04-15T15:19:45.688Z,15.61
2023-04-15T15:22:12.318Z,15.53
2023-04-15T15:24:38.890Z,15.79
2023-04-15T15:27:05.744Z,14.79
2023-04-15T15:29:32.309Z,14.89
2023-04-15T15:31:59.251Z,14.84
2023-04-15T15:34:25.857Z,14.59
2023-04-15T15:36:52.710Z,13.73
2023-04-15T15:39:19.256Z,13.99
2023-04-15T15:41:45.790Z,13.95
2023-04-15T15:44:12.371Z,14.02
2023-04-15T15:46:38.980Z,14.03
2023-04-15T15:49:05.794Z,14.06
2023-04-15T15:51:32.863Z,14.09
2023-04-15T15:53:59.390Z,13.81
2023-04-15T15:56:26.913Z,13.54
2023-04-15T15:58:53.470Z,13.42
2023-04-15T16:01:20.325Z,13.69
2023-04-15T16:03:47.052Z,13.56
2023-04-15T16:06:13.668Z,13.72
2023-04-15T16:08:40.240Z,13.47
2023-04-15T16:11:06.782Z,13.56
2023-04-15T16:13:33.595Z,13.68
2023-04-15T16:16:00.271Z,13.86
2023-04-15T16:18:26.842Z,14.14
2023-04-15T16:20:53.448Z,14.07
2023-04-15T16:23:20.057Z,14.26
2023-04-15T16:25:46.687Z,14.33
2023-04-15T16:28:25.807Z,14.43
2023-04-15T16:30:54.239Z,14.22
2023-04-15T16:33:21.071Z,14.47
2023-04-15T16:35:47.707Z,14.56
2023-04-15T16:38:14.307Z,14.40
2023-04-15T16:40:41.231Z,14.36
2023-04-15T16:43:08.120Z,14.36
2023-04-15T16:45:34.741Z,14.33
2023-04-15T16:48:01.566Z,14.29
2023-04-15T16:50:28.281Z,14.13
2023-04-15T16:52:55.171Z,14.16
2023-04-15T16:55:21.854Z,13.72
2023-04-15T16:58:01.440Z,13.26
2023-04-15T17:00:31.275Z,12.85
2023-04-15T17:02:58.812Z,13.18
2023-04-15T17:05:27.481Z,13.10
2023-04-15T17:07:54.492Z,12.69
2023-04-15T17:10:22.359Z,12.87
2023-04-15T17:12:51.796Z,12.94
2023-04-15T17:15:19.190Z,12.78
2023-04-15T17:17:45.805Z,12.92
2023-04-15T17:20:12.643Z,13.08
2023-04-15T17:22:39.370Z,13.05
2023-04-15T17:25:06.611Z,13.18
2023-04-15T17:27:33.154Z,13.34
2023-04-15T17:29:59.744Z,12.86
2023-04-15T17:32:31.566Z,12.88
2023-04-15T17:34:58.313Z,13.04
2023-04-15T17:37:24.866Z,12.76
2023-04-15T17:39:52.175Z,12.78
2023-04-15T17:42:18.776Z,12.32
2023-04-15T17:44:45.690Z,12.30
2023-04-15T17:47:12.228Z,12.43
2023-04-15T17:49:38.783Z,12.72
2023-04-15T17:52:05.699Z,12.70
2023-04-15T17:54:32.260Z,12.74
2023-04-15T17:56:59.993Z,12.76
2023-04-15T17:59:27.539Z,12.82
2023-04-15T18:01:54.175Z,12.95
2023-04-15T18:04:21.752Z,12.90
2023-04-15T18:06:49.302Z,12.77
2023-04-15T18:09:15.858Z,12.75
2023-04-15T18:11:44.956Z,12.81
2023-04-15T18:14:12.592Z,12.80
2023-04-15T18:16:42.616Z,12.85
2023-04-15T18:19:10.868Z,13.04
2023-04-15T18:21:37.424Z,13.06
2023-04-15T18:24:04.420Z,13.01
2023-04-15T18:26:31.868Z,12.98
2023-04-15T18:28:58.422Z,13.01
2023-04-15T18:31:25.127Z,12.85
2023-04-15T18:33:51.763Z,12.76
2023-04-15T18:36:18.367Z,12.93
2023-04-15T18:38:45.948Z,13.03
2023-04-15T18:41:12.531Z,13.23
2023-04-15T18:43:39.049Z,13.25
2023-04-15T18:46:09.564Z,13.01
2023-04-15T18:48:36.272Z,12.96
2023-04-15T18:51:02.845Z,13.11
2023-04-15T18:53:29.371Z,13.19
2023-04-15T18:55:56.387Z,13.16
2023-04-15T18:58:22.961Z,13.34
2023-04-15T19:00:49.545Z,13.43
2023-04-15T19:03:16.187Z,13.26
2023-04-15T19:05:42.798Z,13.23
2023-04-15T19:08:10.190Z,13.13
2023-04-15T19:10:36.836Z,13.14
2023-04-15T19:13:04.457Z,13.12
2023-04-15T19:15:31.255Z,12.97
2023-04-15T19:17:57.814Z,13.00
2023-04-15T19:20:24.418Z,13.05
2023-04-15T19:22:51.074Z,12.59
2023-04-15T19:25:17.614Z,12.97
2023-04-15T19:27:44.186Z,13.06
2023-04-15T19:30:10.837Z,12.91
2023-04-15T19:32:37.535Z,12.80
2023-04-15T19:35:04.286Z,13.00
2023-04-15T19:37:31.003Z,12.75
2023-04-15T19:39:57.565Z,13.17
2023-04-15T19:42:24.119Z,13.25
2023-04-15T19:44:50.803Z,13.25
2023-04-15T19:47:17.443Z,13.25
2023-04-15T19:49:45.308Z,13.05
2023-04-15T19:52:12.000Z,13.31
2023-04-15T19:54:38.553Z,13.36
2023-04-15T19:57:05.334Z,13.39
2023-04-15T19:59:31.901Z,13.49
2023-04-15T20:01:58.604Z,13.41
2023-04-15T20:04:25.858Z,13.16
2023-04-15T20:06:52.530Z,13.35
2023-04-15T20:09:19.079Z,13.28
2023-04-15T20:12:46.035Z,13.19
2023-04-15T20:14:32.450Z,13.05
2023-04-15T20:16:58.967Z,12.97
2023-04-15T20:19:25.776Z,12.77
2023-04-15T20:21:53.892Z,13.02
2023-04-15T20:24:21.408Z,13.28
2023-04-15T20:26:47.977Z,13.11
2023-04-15T20:29:14.603Z,12.83
2023-04-15T20:31:41.186Z,12.94
2023-04-15T20:34:09.519Z,12.41
2023-04-15T20:36:37.319Z,12.39
2023-04-15T20:39:04.089Z,12.77
2023-04-15T20:41:30.899Z,12.74
2023-04-15T20:43:57.410Z,12.54
2023-04-15T20:46:26.641Z,12.97
2023-04-15T20:48:54.023Z,12.64
2023-04-15T20:51:20.615Z,12.68
2023-04-15T20:53:47.162Z,12.84
2023-04-15T20:56:13.677Z,12.73
2023-04-15T20:58:40.212Z,12.43
2023-04-15T21:01:06.804Z,12.56
2023-04-15T21:03:33.695Z,12.62
2023-04-15T21:06:00.434Z,12.67
2023-04-15T21:08:29.614Z,12.75
2023-04-15T21:10:56.960Z,12.82
2023-04-15T21:13:24.223Z,12.66
2023-04-15T21:15:53.371Z,12.70
2023-04-15T21:18:23.344Z,12.51
2023-04-15T21:21:00.330Z,12.87
2023-04-15T21:23:30.338Z,12.74
2023-04-15T21:25:57.400Z,12.74
2023-04-15T21:28:24.073Z,12.52
2023-04-15T21:30:50.770Z,12.43
2023-04-15T21:33:20.212Z,12.57
2023-04-15T21:35:46.736Z,12.69
2023-04-15T21:38:13.580Z,12.74
2023-04-15T21:40:40.780Z,12.65
2023-04-15T21:43:07.844Z,12.41
2023-04-15T21:45:35.010Z,12.43
2023-04-15T21:48:08.541Z,12.13
2023-04-15T21:50:38.480Z,12.36
2023-04-15T21:53:08.299Z,12.60
2023-04-15T21:55:35.699Z,12.56
2023-04-15T21:58:02.257Z,12.32
2023-04-15T22:00:28.822Z,12.48
2023-04-15T22:02:55.602Z,12.46
2023-04-15T22:05:22.232Z,12.63
2023-04-15T22:07:48.758Z,12.63
2023-04-15T22:10:15.378Z,12.50
2023-04-15T22:12:41.939Z,12.22
2023-04-15T22:15:08.892Z,12.34
2023-04-15T22:17:35.630Z,12.26
2023-04-15T22:20:02.820Z,11.86
2023-04-15T22:22:44.240Z,11.94
2023-04-15T22:25:11.761Z,12.12
2023-04-15T22:27:38.276Z,12.16
2023-04-15T22:30:05.578Z,11.84
2023-04-15T22:32:32.209Z,12.16
2023-04-15T22:34:58.754Z,11.98
2023-04-15T22:37:25.535Z,12.24
2023-04-15T22:39:52.100Z,12.08
2023-04-15T22:42:18.667Z,12.23
2023-04-15T22:44:45.222Z,12.10
2023-04-15T22:47:11.764Z,12.33
2023-04-15T22:49:39.342Z,12.25
2023-04-15T22:52:05.990Z,12.14
2023-04-15T22:54:32.548Z,12.13
2023-04-15T22:56:59.060Z,11.87
2023-04-15T22:59:25.715Z,12.17
2023-04-15T23:01:53.200Z,12.22
2023-04-15T23:04:24.863Z,12.42
2023-04-15T23:06:53.132Z,12.10
2023-04-15T23:09:19.694Z,12.17
2023-04-15T23:11:47.538Z,12.14
2023-04-15T23:14:14.098Z,12.14
2023-04-15T23:16:40.991Z,12.25
2023-04-15T23:19:08.201Z,12.23
2023-04-15T23:21:35.022Z,11.81
2023-04-15T23:24:01.578Z,12.15
2023-04-15T23:26:28.237Z,12.10
2023-04-15T23:28:54.825Z,12.11
2023-04-15T23:31:21.384Z,12.16
2023-04-15T23:33:48.002Z,12.07
2023-04-15T23:36:14.551Z,12.03
2023-04-15T23:38:41.967Z,12.07
2023-04-15T23:41:09.864Z,11.85
2023-04-15T23:43:36.577Z,12.33
2023-04-15T23:46:03.340Z,12.13
2023-04-15T23:48:31.119Z,11.85
2023-04-15T23:50:57.742Z,12.33
2023-04-15T23:53:24.300Z,12.37
2023-04-15T23:55:51.041Z,12.54
2023-04-15T23:58:17.659Z,12.25
